Time;durP1;ratioP1;P1;durP2;ratioP2;P2;SDS_P1;SDS_P2;PMS_P1;PMS_P2;Temp;Humidity;BMP_temperature;BMP_pressure;BME280_temperature;BME280_humidity;BME280_pressure;Samples;Min_cycle;Max_cycle;Signal;HPM_P1;HPM_P2
2022/03/10 00:02:25;;;;;;;19.40;13.55;;;3.30;66.70;;;;;;5096801;28;20127;-77
2022/03/10 00:04:51;;;;;;;20.85;14.00;;;3.40;66.80;;;;;;5113438;28;20096;-78
2022/03/10 00:07:17;;;;;;;22.15;14.23;;;3.30;66.70;;;;;;5079469;28;20050;-77
2022/03/10 00:09:42;;;;;;;19.23;13.45;;;3.30;66.70;;;;;;5096408;28;20130;-78
2022/03/10 00:12:08;;;;;;;19.70;13.80;;;3.30;66.70;;;;;;5113427;28;20047;-78
2022/03/10 00:14:34;;;;;;;19.08;13.52;;;3.30;66.90;;;;;;5096181;28;20461;-77
2022/03/10 00:16:59;;;;;;;18.27;12.75;;;3.30;66.90;;;;;;5096334;28;20055;-77
2022/03/10 00:19:25;;;;;;;18.60;13.40;;;3.30;66.80;;;;;;5113101;28;20047;-77
2022/03/10 00:21:51;;;;;;;20.58;13.98;;;3.20;66.90;;;;;;5095975;28;20039;-78
2022/03/10 00:24:20;;;;;;;23.15;14.80;;;3.10;67.00;;;;;;5096326;28;20050;-77
2022/03/10 00:26:47;;;;;;;18.75;13.63;;;3.10;67.30;;;;;;5095922;28;20480;-78
2022/03/10 00:29:12;;;;;;;21.00;14.25;;;3.10;67.30;;;;;;5096452;28;20117;-78
2022/03/10 00:31:40;;;;;;;17.55;13.80;;;3.10;67.40;;;;;;5096032;28;20035;-77
2022/03/10 00:34:05;;;;;;;19.20;12.90;;;3.10;67.00;;;;;;5113132;28;20444;-78
2022/03/10 00:36:31;;;;;;;18.60;12.32;;;3.10;66.70;;;;;;5112754;28;20073;-78
2022/03/10 00:38:57;;;;;;;20.55;13.02;;;3.20;66.30;;;;;;5113062;28;20221;-78
2022/03/10 00:41:23;;;;;;;19.63;13.38;;;3.30;66.40;;;;;;5112574;28;20032;-78
2022/03/10 00:43:48;;;;;;;17.08;12.88;;;3.30;66.30;;;;;;5095825;28;20040;-78
2022/03/10 00:46:14;;;;;;;19.17;13.13;;;3.30;66.30;;;;;;5095849;28;20040;-77
2022/03/10 00:48:40;;;;;;;18.92;13.48;;;3.30;66.20;;;;;;5095743;28;20032;-78
2022/03/10 00:51:07;;;;;;;20.27;12.48;;;3.20;66.30;;;;;;5095722;28;20082;-78
2022/03/10 00:53:33;;;;;;;17.52;12.75;;;3.20;66.10;;;;;;5112550;28;20092;-78
2022/03/10 00:55:59;;;;;;;18.23;12.77;;;3.20;66.00;;;;;;5112378;28;20082;-78
2022/03/10 00:58:25;;;;;;;15.75;12.07;;;3.10;65.90;;;;;;5112482;28;20071;-77
2022/03/10 01:00:53;;;;;;;17.70;11.80;;;3.20;65.80;;;;;;5094851;28;20031;-78
2022/03/10 01:03:20;;;;;;;16.70;11.43;;;3.20;65.90;;;;;;5112363;28;20557;-78
2022/03/10 01:05:46;;;;;;;16.67;11.95;;;3.20;65.80;;;;;;5112567;28;20043;-77
2022/03/10 01:08:12;;;;;;;18.70;12.10;;;3.20;65.60;;;;;;5095351;28;20475;-78
2022/03/10 01:10:39;;;;;;;17.83;12.65;;;3.20;65.40;;;;;;5112243;28;20043;-78
2022/03/10 01:13:16;;;;;;;16.10;11.50;;;3.30;65.40;;;;;;5095317;28;20515;-78
2022/03/10 01:15:45;;;;;;;21.38;12.38;;;3.30;65.30;;;;;;5112491;28;20050;-78
2022/03/10 01:18:11;;;;;;;17.98;13.27;;;3.30;65.10;;;;;;5078966;28;20050;-78
2022/03/10 01:20:37;;;;;;;20.05;12.80;;;3.30;65.40;;;;;;5112142;28;20040;-78
2022/03/10 01:23:03;;;;;;;18.80;12.23;;;3.30;65.40;;;;;;5112106;28;20043;-78
2022/03/10 01:25:29;;;;;;;18.85;13.15;;;3.30;65.30;;;;;;5112028;28;20032;-78
2022/03/10 01:27:55;;;;;;;18.25;13.60;;;3.30;65.20;;;;;;5095079;28;20173;-78
2022/03/10 01:30:21;;;;;;;20.15;13.85;;;3.30;65.50;;;;;;5112436;28;20043;-78
2022/03/10 01:32:47;;;;;;;18.67;12.05;;;3.20;65.60;;;;;;5095140;28;20126;-78
2022/03/10 01:35:14;;;;;;;21.38;13.10;;;3.20;65.70;;;;;;5095128;28;20113;-78
2022/03/10 01:37:40;;;;;;;21.98;13.15;;;3.10;65.80;;;;;;5095038;28;20502;-78
2022/03/10 01:40:15;;;;;;;21.15;13.70;;;3.10;65.90;;;;;;5094948;28;20036;-78
2022/03/10 01:42:41;;;;;;;18.80;13.05;;;3.10;65.80;;;;;;5112018;28;20050;-78
2022/03/10 01:45:07;;;;;;;18.25;12.88;;;3.10;66.10;;;;;;5094977;28;20035;-78
2022/03/10 01:47:34;;;;;;;19.50;13.57;;;3.00;66.10;;;;;;5095059;28;20530;-78
2022/03/10 01:50:00;;;;;;;20.10;13.57;;;3.00;66.50;;;;;;5112088;28;20075;-78
2022/03/10 01:52:26;;;;;;;19.58;12.52;;;2.90;66.70;;;;;;5095263;28;20061;-78
2022/03/10 01:54:52;;;;;;;18.08;13.00;;;2.90;66.70;;;;;;5111766;28;20558;-78
2022/03/10 01:57:18;;;;;;;17.92;12.38;;;2.90;66.60;;;;;;5111842;28;20126;-78
2022/03/10 01:59:44;;;;;;;16.95;12.98;;;2.90;66.60;;;;;;5111708;28;20127;-78
2022/03/10 02:02:10;;;;;;;20.40;12.95;;;2.90;66.80;;;;;;5095180;28;20093;-78
2022/03/10 02:04:36;;;;;;;17.55;11.85;;;2.90;66.90;;;;;;5111942;28;20492;-78
2022/03/10 02:07:05;;;;;;;18.70;12.27;;;2.90;66.60;;;;;;5111624;28;20039;-78
2022/03/10 02:12:16;;;;;;;20.35;13.95;;;2.90;66.50;;;;;;5112976;28;20165;-78
2022/03/10 02:17:26;;;;;;;18.27;13.35;;;2.70;67.10;;;;;;5115510;28;20499;-78
2022/03/10 02:19:55;;;;;;;17.48;12.57;;;2.60;67.10;;;;;;5115440;28;20040;-78
2022/03/10 02:22:22;;;;;;;21.13;13.70;;;2.60;67.40;;;;;;5115468;28;20104;-78
2022/03/10 02:24:49;;;;;;;18.52;13.13;;;2.60;67.70;;;;;;5098419;28;20039;-77
2022/03/10 02:27:23;;;;;;;18.10;12.68;;;2.50;67.90;;;;;;5115378;28;20126;-78
2022/03/10 02:29:51;;;;;;;19.15;12.13;;;2.50;68.00;;;;;;5098333;28;20040;-78
2022/03/10 02:32:18;;;;;;;19.15;13.63;;;2.40;68.20;;;;;;5115273;28;20047;-78
2022/03/10 02:34:45;;;;;;;20.58;13.73;;;2.40;68.20;;;;;;5115130;28;20039;-78
2022/03/10 02:37:11;;;;;;;19.77;14.05;;;2.30;68.30;;;;;;5115103;28;20040;-78
2022/03/10 02:39:38;;;;;;;20.00;13.98;;;2.30;68.40;;;;;;5115115;28;20051;-79
2022/03/10 02:42:04;;;;;;;19.27;14.27;;;2.20;68.50;;;;;;5115334;28;20099;-77
2022/03/10 02:44:30;;;;;;;19.80;13.98;;;2.20;68.70;;;;;;5098044;28;20119;-78
2022/03/10 02:46:56;;;;;;;19.70;14.00;;;2.20;68.60;;;;;;5115172;28;20169;-78
2022/03/10 02:49:22;;;;;;;19.08;14.60;;;2.20;68.70;;;;;;5114971;28;20046;-78
2022/03/10 02:51:48;;;;;;;20.38;14.50;;;2.10;68.60;;;;;;5098206;28;20028;-78
2022/03/10 02:54:14;;;;;;;23.98;15.35;;;2.10;68.80;;;;;;5080975;28;20560;-78
2022/03/10 02:56:39;;;;;;;21.73;15.13;;;2.10;69.10;;;;;;5114706;28;20035;-78
2022/03/10 02:59:05;;;;;;;18.80;13.93;;;2.10;69.00;;;;;;5097912;28;20093;-78
2022/03/10 03:01:31;;;;;;;20.63;14.27;;;2.10;69.10;;;;;;5080719;28;20087;-78
2022/03/10 03:03:57;;;;;;;21.60;14.20;;;2.10;69.20;;;;;;5114646;28;20047;-77
2022/03/10 03:06:23;;;;;;;20.40;14.63;;;2.10;69.10;;;;;;5097789;28;20032;-77
2022/03/10 03:08:49;;;;;;;17.90;13.63;;;2.10;69.10;;;;;;5114813;28;20462;-78
2022/03/10 03:11:15;;;;;;;21.85;15.43;;;2.10;69.20;;;;;;5114420;28;20127;-78
2022/03/10 03:13:40;;;;;;;21.30;14.85;;;2.10;69.10;;;;;;5097187;28;20408;-78
2022/03/10 03:16:06;;;;;;;20.38;14.27;;;2.10;69.10;;;;;;5114378;28;20094;-77
2022/03/10 03:18:32;;;;;;;19.92;14.50;;;2.10;69.00;;;;;;5114567;28;20032;-78
2022/03/10 03:20:58;;;;;;;20.80;14.88;;;2.10;69.00;;;;;;5114227;28;20518;-77
2022/03/10 03:23:27;;;;;;;24.60;15.13;;;2.10;68.90;;;;;;5114284;28;20035;-78
2022/03/10 03:25:53;;;;;;;22.90;16.23;;;2.10;68.90;;;;;;5113914;28;20035;-77
2022/03/10 03:28:22;;;;;;;23.92;15.15;;;2.10;68.90;;;;;;5114428;28;20165;-78
2022/03/10 03:30:48;;;;;;;20.05;14.25;;;2.10;68.80;;;;;;5114082;28;20506;-78
2022/03/10 03:33:14;;;;;;;22.00;14.63;;;2.10;68.80;;;;;;5114133;28;20040;-78
2022/03/10 03:35:41;;;;;;;20.75;15.10;;;2.10;68.80;;;;;;5113939;28;20036;-78
2022/03/10 03:38:07;;;;;;;19.83;15.15;;;2.10;69.20;;;;;;5114311;28;20414;-78
2022/03/10 03:40:33;;;;;;;20.25;15.73;;;2.10;69.20;;;;;;5096886;28;20123;-78
2022/03/10 03:42:59;;;;;;;23.27;15.27;;;2.10;69.20;;;;;;5113925;28;20071;-78
2022/03/10 03:45:24;;;;;;;21.90;15.40;;;2.00;69.40;;;;;;5113710;28;20120;-78
2022/03/10 03:47:50;;;;;;;21.98;15.27;;;2.00;69.40;;;;;;5113831;28;20036;-77
2022/03/10 03:50:16;;;;;;;20.77;15.40;;;1.90;69.40;;;;;;5097047;28;20046;-78
2022/03/10 03:52:42;;;;;;;21.35;15.20;;;1.90;69.50;;;;;;5113648;28;20476;-78
2022/03/10 03:55:08;;;;;;;20.70;15.38;;;1.90;69.40;;;;;;5114068;28;20134;-78
2022/03/10 03:57:34;;;;;;;21.00;14.45;;;1.90;69.10;;;;;;5113641;28;20051;-78
2022/03/10 04:00:01;;;;;;;20.52;13.75;;;1.90;69.00;;;;;;5079668;28;20039;-77
2022/03/10 04:02:26;;;;;;;20.63;14.90;;;2.00;69.00;;;;;;5096578;28;20492;-78
2022/03/10 04:04:52;;;;;;;22.08;14.13;;;2.00;69.30;;;;;;5113352;28;20043;-78
2022/03/10 04:07:18;;;;;;;20.63;15.13;;;2.00;69.40;;;;;;5113456;28;20039;-78
2022/03/10 04:09:44;;;;;;;21.45;14.93;;;2.00;69.50;;;;;;5113353;28;20116;-78
2022/03/10 04:12:10;;;;;;;23.63;15.43;;;2.00;69.50;;;;;;5096668;28;20040;-78
2022/03/10 04:14:36;;;;;;;19.95;14.77;;;2.00;69.50;;;;;;5096207;28;20088;-78
2022/03/10 04:17:02;;;;;;;21.58;14.40;;;2.00;69.70;;;;;;5113436;28;20047;-78
2022/03/10 04:19:28;;;;;;;20.13;14.75;;;1.90;69.60;;;;;;5113107;28;20043;-78
2022/03/10 04:21:56;;;;;;;23.85;14.93;;;2.00;69.70;;;;;;5096250;28;20042;-78
2022/03/10 04:24:22;;;;;;;22.48;14.88;;;1.90;69.90;;;;;;5096482;28;20065;-78
2022/03/10 04:26:47;;;;;;;21.48;14.65;;;1.90;69.90;;;;;;5096016;28;20036;-78
2022/03/10 04:29:14;;;;;;;22.45;15.35;;;1.90;70.00;;;;;;5096295;28;20122;-77
2022/03/10 04:31:41;;;;;;;24.90;15.93;;;1.90;70.20;;;;;;5112918;28;20044;-78
2022/03/10 04:34:07;;;;;;;21.83;15.02;;;1.90;70.00;;;;;;5112941;28;20044;-79
2022/03/10 04:36:32;;;;;;;23.52;15.35;;;1.90;70.10;;;;;;5095331;28;20130;-77
2022/03/10 04:38:58;;;;;;;21.50;13.73;;;1.90;69.70;;;;;;5112906;28;20040;-78
2022/03/10 04:41:26;;;;;;;18.40;13.15;;;1.90;69.80;;;;;;5112828;28;20097;-77
2022/03/10 04:43:52;;;;;;;23.58;15.30;;;1.90;69.60;;;;;;5079524;28;20484;-77
2022/03/10 04:46:18;;;;;;;21.50;13.75;;;1.90;69.40;;;;;;5112624;28;20035;-78
2022/03/10 04:48:44;;;;;;;21.13;13.93;;;1.90;69.50;;;;;;5112629;28;20403;-78
2022/03/10 04:51:10;;;;;;;20.13;15.10;;;1.90;69.60;;;;;;5112579;28;20037;-79
2022/03/10 04:53:35;;;;;;;20.77;14.55;;;1.80;69.60;;;;;;5112462;28;20039;-79
2022/03/10 04:56:01;;;;;;;21.60;14.73;;;1.80;69.50;;;;;;5095521;28;20039;-79
2022/03/10 04:58:27;;;;;;;22.52;15.73;;;1.70;69.60;;;;;;5112512;28;20044;-79
2022/03/10 05:00:52;;;;;;;24.23;16.52;;;1.70;69.90;;;;;;5095502;28;20046;-79
2022/03/10 05:03:18;;;;;;;22.02;15.05;;;1.70;69.90;;;;;;5095708;28;20044;-79
2022/03/10 05:05:46;;;;;;;23.45;15.27;;;1.60;70.10;;;;;;5112475;28;20039;-79
2022/03/10 05:08:12;;;;;;;22.00;15.15;;;1.60;70.20;;;;;;5112257;28;20502;-79
2022/03/10 05:10:37;;;;;;;19.65;14.23;;;1.50;70.40;;;;;;5095448;28;20117;-79
2022/03/10 05:13:04;;;;;;;24.77;15.50;;;1.50;70.50;;;;;;5112240;28;20040;-79
2022/03/10 05:15:31;;;;;;;23.95;15.52;;;1.60;70.60;;;;;;5112093;28;20052;-79
2022/03/10 05:18:02;;;;;;;19.38;14.68;;;1.50;70.40;;;;;;5095531;28;20112;-79
2022/03/10 05:20:28;;;;;;;20.67;15.13;;;1.60;70.20;;;;;;5112051;28;20122;-79
2022/03/10 05:22:57;;;;;;;26.05;16.42;;;1.60;70.20;;;;;;5112127;28;20132;-79
2022/03/10 05:25:26;;;;;;;25.35;16.45;;;1.60;70.20;;;;;;5095366;28;20058;-79
2022/03/10 05:27:52;;;;;;;22.90;15.00;;;1.60;70.10;;;;;;5112378;28;20062;-79
2022/03/10 05:30:19;;;;;;;24.35;16.38;;;1.50;70.30;;;;;;5112084;28;20036;-79
2022/03/10 05:32:46;;;;;;;22.80;16.08;;;1.60;70.40;;;;;;5095289;28;20089;-80
2022/03/10 05:35:17;;;;;;;23.80;15.80;;;1.60;70.30;;;;;;5111947;28;20046;-79
2022/03/10 05:37:44;;;;;;;20.98;16.55;;;1.60;70.40;;;;;;5095645;28;20047;-80
2022/03/10 05:40:13;;;;;;;23.70;15.73;;;1.60;70.40;;;;;;5112157;28;20043;-79
2022/03/10 05:42:40;;;;;;;27.52;18.52;;;1.50;70.40;;;;;;5111838;28;20104;-79
2022/03/10 05:45:07;;;;;;;23.35;16.20;;;1.50;70.10;;;;;;5112141;28;20444;-79
2022/03/10 05:47:34;;;;;;;24.75;15.63;;;1.40;70.30;;;;;;5113539;28;20035;-79
2022/03/10 05:50:00;;;;;;;25.38;15.88;;;1.40;70.60;;;;;;5098974;28;20048;-79
2022/03/10 05:52:25;;;;;;;21.83;15.90;;;1.40;70.30;;;;;;5098962;28;20140;-79
2022/03/10 05:54:51;;;;;;;22.33;14.93;;;1.50;70.60;;;;;;5099006;28;20097;-79
2022/03/10 05:57:17;;;;;;;24.55;15.60;;;1.50;70.20;;;;;;5098512;28;20491;-80
2022/03/10 05:59:42;;;;;;;23.10;16.00;;;1.50;70.20;;;;;;5081668;28;20036;-80
2022/03/10 06:02:08;;;;;;;22.42;15.27;;;1.50;70.20;;;;;;5099040;28;20042;-79
2022/03/10 06:04:34;;;;;;;20.67;14.18;;;1.50;70.10;;;;;;5115796;28;20039;-79
2022/03/10 06:07:00;;;;;;;25.75;16.92;;;1.50;69.80;;;;;;5115796;28;20032;-80
2022/03/10 06:09:26;;;;;;;23.00;15.20;;;1.50;70.00;;;;;;5116077;28;20047;-79
2022/03/10 06:11:51;;;;;;;24.08;14.95;;;1.50;69.80;;;;;;5115610;28;20395;-79
2022/03/10 06:14:18;;;;;;;22.90;15.75;;;1.50;70.00;;;;;;5098483;28;20047;-79
2022/03/10 06:16:44;;;;;;;25.02;16.10;;;1.60;69.70;;;;;;5098587;28;20047;-79
2022/03/10 06:19:10;;;;;;;22.42;15.95;;;1.60;69.50;;;;;;5115592;28;20043;-79
2022/03/10 06:21:38;;;;;;;23.35;16.45;;;1.60;69.40;;;;;;5115443;28;20088;-79
2022/03/10 06:24:04;;;;;;;19.27;13.82;;;1.60;69.40;;;;;;5081731;28;20040;-79
2022/03/10 06:26:30;;;;;;;21.55;14.05;;;1.60;69.40;;;;;;5098374;28;20122;-79
2022/03/10 06:28:56;;;;;;;23.27;15.07;;;1.70;69.40;;;;;;5115685;28;20078;-79
2022/03/10 06:31:24;;;;;;;23.27;14.90;;;1.70;69.50;;;;;;5115272;28;20091;-79
2022/03/10 06:33:51;;;;;;;21.15;15.35;;;1.70;69.60;;;;;;5098658;28;20428;-79
2022/03/10 06:36:17;;;;;;;24.80;14.30;;;1.70;69.70;;;;;;5115394;28;20052;-78
2022/03/10 06:38:43;;;;;;;23.63;15.52;;;1.70;69.60;;;;;;5115160;28;20048;-79
2022/03/10 06:41:09;;;;;;;20.65;15.50;;;1.70;69.70;;;;;;5098095;28;20036;-78
2022/03/10 06:43:34;;;;;;;24.50;14.77;;;1.60;69.80;;;;;;5098169;28;20040;-79
2022/03/10 06:46:00;;;;;;;24.75;16.65;;;1.60;69.80;;;;;;5098017;28;20039;-79
2022/03/10 06:48:28;;;;;;;20.67;14.43;;;1.70;69.90;;;;;;5098527;28;20027;-79
2022/03/10 06:50:53;;;;;;;22.15;14.80;;;1.70;69.80;;;;;;5117302;27;20041;-79
2022/03/10 06:53:19;;;;;;;23.85;15.85;;;1.70;69.90;;;;;;5100913;27;20118;-79
2022/03/10 06:55:45;;;;;;;22.05;14.90;;;1.80;69.80;;;;;;5087841;27;20281;-79
2022/03/10 06:58:11;;;;;;;20.20;13.95;;;1.80;69.70;;;;;;5118946;27;20474;-79
2022/03/10 07:00:37;;;;;;;21.33;14.77;;;1.80;69.70;;;;;;5118441;27;20566;-79
2022/03/10 07:03:03;;;;;;;27.20;16.35;;;1.90;69.90;;;;;;5108960;27;20123;-79
2022/03/10 07:05:29;;;;;;;22.42;15.68;;;1.90;70.10;;;;;;5118330;27;20040;-79
2022/03/10 07:07:55;;;;;;;24.60;15.63;;;1.90;70.20;;;;;;5108693;27;20074;-78
2022/03/10 07:10:21;;;;;;;23.33;14.88;;;2.00;70.10;;;;;;5118057;27;20451;-79
2022/03/10 07:12:47;;;;;;;24.00;16.25;;;2.00;70.20;;;;;;5117847;27;20143;-79
2022/03/10 07:15:14;;;;;;;25.60;15.18;;;2.00;70.00;;;;;;5085633;28;20090;-80
2022/03/10 07:17:41;;;;;;;22.20;14.90;;;2.10;70.00;;;;;;5123362;27;20055;-80
2022/03/10 07:20:07;;;;;;;25.75;16.48;;;2.10;69.90;;;;;;5104870;27;20043;-79
2022/03/10 07:22:34;;;;;;;21.08;15.38;;;2.20;70.10;;;;;;5120516;27;20051;-80
2022/03/10 07:24:59;;;;;;;22.55;15.20;;;2.20;69.80;;;;;;5109002;27;20127;-79
2022/03/10 07:27:25;;;;;;;23.75;16.30;;;2.30;69.90;;;;;;5117754;27;20122;-79
2022/03/10 07:29:51;;;;;;;22.05;15.68;;;2.30;70.10;;;;;;5118578;27;20043;-79
2022/03/10 07:32:17;;;;;;;24.95;16.85;;;2.30;70.40;;;;;;5125681;27;20047;-79
2022/03/10 07:34:47;;;;;;;23.52;15.00;;;2.30;70.50;;;;;;5122741;27;20047;-80
2022/03/10 07:37:14;;;;;;;24.65;15.50;;;2.40;70.40;;;;;;5117527;27;20046;-79
2022/03/10 07:39:40;;;;;;;22.30;15.80;;;2.40;70.90;;;;;;5117631;27;20050;-79
2022/03/10 07:42:06;;;;;;;24.70;17.23;;;2.50;70.70;;;;;;5117642;27;20047;-79
2022/03/10 07:44:32;;;;;;;25.38;15.93;;;2.60;70.60;;;;;;5134367;27;20544;-79
2022/03/10 07:46:58;;;;;;;27.02;17.70;;;2.60;70.60;;;;;;5134380;27;20042;-79
2022/03/10 07:49:23;;;;;;;25.75;16.30;;;2.60;70.60;;;;;;5134474;27;20039;-79
2022/03/10 07:51:49;;;;;;;26.83;17.30;;;2.70;70.90;;;;;;5117552;27;20031;-79
2022/03/10 07:54:15;;;;;;;27.38;16.52;;;2.70;70.50;;;;;;5117202;27;20042;-79
2022/03/10 07:56:41;;;;;;;26.02;16.40;;;2.90;70.60;;;;;;5134169;27;20126;-79
2022/03/10 07:59:07;;;;;;;28.70;17.85;;;3.00;70.50;;;;;;5117034;27;20046;-79
2022/03/10 08:01:33;;;;;;;25.73;15.88;;;3.10;70.50;;;;;;5116911;27;20035;-79
2022/03/10 08:03:58;;;;;;;26.58;16.48;;;3.20;70.30;;;;;;5099992;27;20131;-79
2022/03/10 08:06:26;;;;;;;26.58;16.10;;;3.30;70.20;;;;;;5116883;27;20039;-79
2022/03/10 08:08:52;;;;;;;24.75;16.52;;;3.40;69.90;;;;;;5117395;27;20054;-79
2022/03/10 08:11:18;;;;;;;25.67;16.27;;;3.60;69.60;;;;;;5099702;27;20035;-79
2022/03/10 08:13:44;;;;;;;25.40;16.30;;;3.70;69.30;;;;;;5151058;27;20054;-79
2022/03/10 08:16:10;;;;;;;23.08;14.95;;;3.80;69.00;;;;;;5116699;27;20055;-79
2022/03/10 08:18:36;;;;;;;23.58;15.48;;;3.90;69.10;;;;;;5099962;27;20081;-79
2022/03/10 08:21:02;;;;;;;25.75;15.40;;;4.10;68.80;;;;;;5133945;27;20127;-79
2022/03/10 08:23:28;;;;;;;23.40;16.73;;;4.20;68.70;;;;;;5134095;27;20039;-80
2022/03/10 08:25:55;;;;;;;23.35;15.88;;;4.30;68.40;;;;;;5133759;27;20036;-79
2022/03/10 08:28:21;;;;;;;22.05;15.30;;;4.40;67.90;;;;;;5116548;27;20038;-80
2022/03/10 08:30:47;;;;;;;24.30;16.65;;;4.60;67.60;;;;;;5133812;27;20039;-79
2022/03/10 08:33:12;;;;;;;20.98;14.48;;;4.70;66.30;;;;;;5116387;27;20042;-79
2022/03/10 08:35:38;;;;;;;25.45;15.75;;;4.80;66.40;;;;;;5133689;27;20039;-79
2022/03/10 08:38:04;;;;;;;23.83;16.20;;;5.00;66.10;;;;;;5133768;27;20230;-79
2022/03/10 08:40:30;;;;;;;22.60;15.00;;;5.10;65.90;;;;;;5133430;27;20506;-79
2022/03/10 08:42:55;;;;;;;22.75;16.35;;;5.20;65.50;;;;;;5116292;27;20116;-80
2022/03/10 08:45:25;;;;;;;23.55;15.27;;;5.30;65.40;;;;;;5116740;27;20062;-79
2022/03/10 08:47:55;;;;;;;22.70;14.50;;;5.50;65.00;;;;;;5117283;27;20121;-80
2022/03/10 08:50:25;;;;;;;22.58;16.08;;;5.60;64.80;;;;;;5117160;27;20042;-79
2022/03/10 08:52:51;;;;;;;25.13;15.63;;;5.70;64.50;;;;;;5133759;27;20559;-80
2022/03/10 08:55:17;;;;;;;21.02;15.27;;;5.80;63.30;;;;;;5116330;27;20035;-80
2022/03/10 08:57:43;;;;;;;23.27;15.88;;;6.00;63.50;;;;;;5083253;27;20199;-80
2022/03/10 09:00:11;;;;;;;26.35;17.00;;;6.10;63.20;;;;;;5116482;27;20499;-80
2022/03/10 09:02:37;;;;;;;21.17;15.15;;;6.10;62.70;;;;;;5151536;27;20115;-80
2022/03/10 09:05:04;;;;;;;20.92;14.70;;;6.30;62.50;;;;;;5150741;27;20546;-80
2022/03/10 09:07:29;;;;;;;29.48;16.05;;;6.40;61.40;;;;;;5116878;27;20035;-80
2022/03/10 09:09:55;;;;;;;24.15;15.23;;;6.50;61.50;;;;;;5133432;27;20501;-80
2022/03/10 09:12:21;;;;;;;25.48;16.25;;;6.60;61.00;;;;;;5116097;28;20487;-80
2022/03/10 09:14:47;;;;;;;24.08;17.17;;;6.80;60.80;;;;;;5132643;27;20085;-80
2022/03/10 09:17:13;;;;;;;27.80;16.42;;;6.90;61.10;;;;;;5115901;27;20134;-80
2022/03/10 09:19:39;;;;;;;27.33;16.30;;;7.00;60.50;;;;;;5132856;27;20037;-80
2022/03/10 09:22:05;;;;;;;25.13;15.73;;;7.10;60.50;;;;;;5115210;28;20046;-80
2022/03/10 09:24:31;;;;;;;22.23;15.57;;;7.30;60.40;;;;;;5115580;28;20040;-80
2022/03/10 09:26:57;;;;;;;25.63;16.52;;;7.50;60.10;;;;;;5115879;28;20096;-80
2022/03/10 09:29:23;;;;;;;23.58;15.95;;;7.60;59.80;;;;;;5115905;28;20039;-80
2022/03/10 09:31:49;;;;;;;24.13;16.73;;;7.80;60.30;;;;;;5116039;28;20031;-80
2022/03/10 09:34:15;;;;;;;22.77;16.08;;;7.90;60.20;;;;;;5133156;28;20564;-80
2022/03/10 09:36:40;;;;;;;23.95;15.90;;;8.10;59.50;;;;;;5115860;28;20244;-81
2022/03/10 09:39:06;;;;;;;24.65;16.35;;;8.20;58.80;;;;;;5099009;28;20035;-81
2022/03/10 09:41:32;;;;;;;22.90;15.88;;;8.50;57.50;;;;;;5132612;28;20472;-81
2022/03/10 09:43:59;;;;;;;24.08;16.90;;;8.60;58.20;;;;;;5098989;28;20126;-81
2022/03/10 09:46:25;;;;;;;23.00;16.30;;;8.70;56.70;;;;;;5115758;28;20047;-81
2022/03/10 09:48:52;;;;;;;25.23;16.27;;;8.90;57.70;;;;;;5116194;28;20483;-81
2022/03/10 09:51:22;;;;;;;24.85;16.92;;;9.00;57.00;;;;;;5116314;28;20046;-81
2022/03/10 09:53:48;;;;;;;27.27;16.70;;;9.20;57.50;;;;;;5115521;28;20046;-81
2022/03/10 09:56:14;;;;;;;23.95;16.55;;;9.40;56.30;;;;;;5115694;28;20403;-81
2022/03/10 09:58:39;;;;;;;25.40;16.27;;;9.50;54.20;;;;;;5115754;28;20473;-81
2022/03/10 10:01:08;;;;;;;25.30;17.25;;;9.60;55.50;;;;;;5115182;28;20274;-81
2022/03/10 10:03:34;;;;;;;25.10;16.63;;;9.80;53.60;;;;;;5115315;28;20050;-81
2022/03/10 10:06:02;;;;;;;25.77;16.88;;;9.80;52.50;;;;;;5098545;28;20035;-81
2022/03/10 10:08:31;;;;;;;25.55;16.42;;;9.90;53.90;;;;;;5115225;28;20905;-81
2022/03/10 10:10:59;;;;;;;26.17;17.45;;;10.00;53.70;;;;;;5132715;28;20457;-80
2022/03/10 10:13:28;;;;;;;26.60;18.20;;;10.20;53.70;;;;;;5115394;28;20318;-80
2022/03/10 10:16:04;;;;;;;25.33;15.95;;;10.30;52.50;;;;;;5115354;28;20449;-80
2022/03/10 10:18:31;;;;;;;25.67;17.38;;;10.50;53.50;;;;;;5132169;28;20118;-80
2022/03/10 10:20:57;;;;;;;27.60;18.15;;;10.70;54.00;;;;;;5149361;27;20039;-80
2022/03/10 10:23:26;;;;;;;27.23;17.58;;;11.00;52.70;;;;;;5132346;28;20092;-80
2022/03/10 10:25:56;;;;;;;22.70;17.90;;;11.10;52.40;;;;;;5114900;28;20038;-80
2022/03/10 10:28:37;;;;;;;25.23;17.90;;;11.20;51.80;;;;;;5132291;28;20035;-80
2022/03/10 10:31:04;;;;;;;23.95;17.15;;;11.30;51.90;;;;;;5115099;28;20046;-80
2022/03/10 10:33:32;;;;;;;25.95;18.25;;;11.50;52.50;;;;;;5132213;27;20042;-80
2022/03/10 10:36:19;;;;;;;26.42;17.95;;;11.70;52.60;;;;;;5136639;27;20399;-81
2022/03/10 10:38:48;;;;;;;24.77;18.67;;;11.70;50.30;;;;;;5137845;27;20103;-80
2022/03/10 10:41:23;;;;;;;29.02;18.52;;;12.00;52.10;;;;;;5153685;27;20465;-80
2022/03/10 10:43:52;;;;;;;29.38;20.33;;;12.20;52.10;;;;;;5135639;27;20058;-81
2022/03/10 10:46:49;;;;;;;25.30;17.48;;;12.50;51.30;;;;;;5118152;27;20379;-81
2022/03/10 10:49:20;;;;;;;28.50;19.90;;;12.60;50.40;;;;;;5152803;27;20507;-81
2022/03/10 10:51:50;;;;;;;28.15;18.92;;;12.70;50.30;;;;;;5118775;27;20039;-81
2022/03/10 10:54:24;;;;;;;27.63;18.48;;;12.70;51.00;;;;;;5119248;27;20192;-81
2022/03/10 10:56:53;;;;;;;27.33;20.42;;;12.60;50.60;;;;;;5135585;27;20095;-81
2022/03/10 10:59:45;;;;;;;27.60;18.17;;;12.50;50.50;;;;;;5153495;27;20039;-81
2022/03/10 11:02:22;;;;;;;28.25;18.80;;;12.50;49.70;;;;;;5131452;27;20059;-81
2022/03/10 11:04:49;;;;;;;27.13;18.80;;;12.60;50.40;;;;;;5152632;27;20035;-81
2022/03/10 11:07:15;;;;;;;27.77;18.70;;;12.80;50.10;;;;;;5101384;27;20171;-81
2022/03/10 11:09:43;;;;;;;27.25;18.98;;;13.10;48.70;;;;;;5135263;27;20498;-82
2022/03/10 11:12:13;;;;;;;26.25;19.30;;;13.50;48.80;;;;;;5135106;27;20490;-82
2022/03/10 11:14:59;;;;;;;28.42;18.73;;;13.70;48.10;;;;;;5101208;27;20465;-82
2022/03/10 11:17:26;;;;;;;28.05;19.77;;;14.00;47.30;;;;;;5101126;27;20085;-82
2022/03/10 11:19:57;;;;;;;25.88;18.55;;;14.30;46.60;;;;;;5084377;27;20129;-82
2022/03/10 11:22:48;;;;;;;27.60;19.80;;;14.40;46.60;;;;;;5135002;27;20043;-82
2022/03/10 11:25:31;;;;;;;26.90;18.98;;;14.50;46.40;;;;;;5134932;27;20042;-82
2022/03/10 11:28:13;;;;;;;27.42;20.05;;;14.40;44.10;;;;;;5135097;27;20499;-82
2022/03/10 11:30:40;;;;;;;24.67;18.20;;;14.60;45.30;;;;;;5134810;27;20043;-82
2022/03/10 11:33:12;;;;;;;26.90;18.35;;;14.80;45.00;;;;;;5152372;27;20395;-82
2022/03/10 11:35:39;;;;;;;24.88;18.85;;;14.90;45.30;;;;;;5117505;27;20095;-80
2022/03/10 11:38:05;;;;;;;27.73;20.05;;;15.00;45.10;;;;;;5117512;27;20043;-80
2022/03/10 11:40:43;;;;;;;33.20;19.10;;;15.10;44.00;;;;;;5134533;27;20043;-80
2022/03/10 11:43:10;;;;;;;28.42;18.95;;;15.30;43.30;;;;;;5134672;27;20043;-80
2022/03/10 11:45:36;;;;;;;26.05;20.05;;;15.40;43.70;;;;;;5116713;27;20118;-79
2022/03/10 11:48:30;;;;;;;28.05;20.42;;;15.40;42.10;;;;;;5117254;27;20043;-80
2022/03/10 11:50:56;;;;;;;28.15;19.23;;;15.30;42.50;;;;;;5134514;27;20039;-79
2022/03/10 11:53:21;;;;;;;28.02;19.20;;;15.20;41.40;;;;;;5134368;27;20039;-81
2022/03/10 11:55:53;;;;;;;28.52;19.73;;;15.30;42.40;;;;;;5134062;27;20117;-81
2022/03/10 11:58:34;;;;;;;27.88;21.20;;;15.40;42.40;;;;;;5151651;27;20078;-81
2022/03/10 12:01:00;;;;;;;28.77;20.27;;;15.50;42.30;;;;;;5134070;27;20097;-81
2022/03/10 12:03:36;;;;;;;26.33;19.65;;;15.50;42.20;;;;;;5117233;27;20128;-81
2022/03/10 12:06:15;;;;;;;30.30;22.15;;;15.30;40.90;;;;;;5116845;27;20043;-81
2022/03/10 12:08:41;;;;;;;27.73;20.77;;;15.50;42.30;;;;;;5134068;27;20079;-81
2022/03/10 12:11:14;;;;;;;27.85;19.88;;;15.70;42.80;;;;;;5133895;27;20133;-81
2022/03/10 12:13:44;;;;;;;26.73;19.70;;;15.90;42.10;;;;;;5133677;27;20140;-81
2022/03/10 12:16:30;;;;;;;27.73;19.55;;;16.00;41.50;;;;;;5134099;27;20062;-81
2022/03/10 12:18:56;;;;;;;26.73;19.50;;;16.00;39.80;;;;;;5116523;27;20380;-81
2022/03/10 12:21:24;;;;;;;28.52;19.95;;;16.00;40.60;;;;;;5150928;27;20035;-81
2022/03/10 12:24:02;;;;;;;33.38;20.85;;;16.00;40.30;;;;;;5116695;27;20043;-81
2022/03/10 12:26:33;;;;;;;30.10;20.17;;;16.10;39.80;;;;;;5150963;27;20031;-81
2022/03/10 12:29:04;;;;;;;27.90;19.70;;;16.20;39.20;;;;;;5133549;27;20050;-81
2022/03/10 12:31:32;;;;;;;28.98;20.75;;;16.20;39.40;;;;;;5133866;27;20039;-81
2022/03/10 12:34:05;;;;;;;28.38;19.00;;;16.20;38.10;;;;;;5116291;27;20074;-81
2022/03/10 12:36:34;;;;;;;33.28;20.17;;;16.30;38.60;;;;;;5116508;27;20042;-81
2022/03/10 12:39:25;;;;;;;30.92;20.05;;;16.20;37.30;;;;;;5116141;27;20047;-81
2022/03/10 12:41:54;;;;;;;31.25;19.80;;;16.20;38.00;;;;;;5116341;27;20433;-78
2022/03/10 12:44:22;;;;;;;28.60;19.27;;;16.00;37.20;;;;;;5116443;27;20364;-81